Time;durP1;ratioP1;P1;durP2;ratioP2;P2;SDS_P1;SDS_P2;PMS_P1;PMS_P2;Temp;Humidity;BMP_temperature;BMP_pressure;BME280_temperature;BME280_humidity;BME280_pressure;Samples;Min_cycle;Max_cycle;Signal;HPM_P1;HPM_P2
2022/01/02 00:00:07;;;;;;;9.98;7.47;;;;;;;6.97;80.19;99481.84;2618576;54;20038;-70
2022/01/02 00:02:38;;;;;;;10.52;7.00;;;;;;;6.94;80.28;99481.19;2618509;54;20034;-71
2022/01/02 00:05:11;;;;;;;12.27;8.75;;;;;;;6.94;80.23;99469.84;2619013;54;20034;-70
2022/01/02 00:07:48;;;;;;;8.15;6.88;;;;;;;6.90;80.40;99479.03;2619103;39;20470;-71
2022/01/02 00:10:22;;;;;;;26.50;17.60;;;;;;;6.94;80.57;99483.00;2618910;54;20038;-70
2022/01/02 00:12:54;;;;;;;16.95;8.85;;;;;;;7.03;80.61;99474.19;2618846;54;20034;-71
2022/01/02 00:15:24;;;;;;;10.82;8.10;;;;;;;7.14;80.55;99470.47;2618731;54;20046;-70
2022/01/02 00:17:55;;;;;;;9.82;6.70;;;;;;;7.11;79.60;99455.03;2618361;54;20029;-70
2022/01/02 00:20:32;;;;;;;9.10;6.78;;;;;;;7.05;79.78;99448.56;2619201;54;20026;-70
2022/01/02 00:23:07;;;;;;;12.50;9.07;;;;;;;6.91;79.41;99459.63;2618066;54;20075;-70
2022/01/02 00:25:40;;;;;;;11.90;9.10;;;;;;;6.85;79.65;99460.25;2618058;54;20181;-70
2022/01/02 00:28:12;;;;;;;13.23;8.30;;;;;;;6.82;79.72;99465.81;2617476;47;20068;-70
2022/01/02 00:30:43;;;;;;;9.38;6.75;;;;;;;6.80;79.86;99465.13;2618466;54;20065;-70
2022/01/02 00:33:13;;;;;;;11.90;9.45;;;;;;;6.74;79.59;99461.31;2617924;47;20038;-70
2022/01/02 00:35:43;;;;;;;11.27;8.68;;;;;;;6.64;79.28;99471.06;2617741;54;20034;-70
2022/01/02 00:38:20;;;;;;;12.75;10.23;;;;;;;6.51;79.35;99473.25;2618769;54;20026;-70
2022/01/02 00:40:52;;;;;;;11.40;9.15;;;;;;;6.45;80.19;99470.25;2619443;54;20034;-70
2022/01/02 00:43:28;;;;;;;8.40;6.80;;;;;;;6.41;80.01;99466.28;2619509;54;20030;-70
2022/01/02 00:46:02;;;;;;;11.23;8.50;;;;;;;6.42;80.01;99467.94;2619895;54;20038;-70
2022/01/02 00:48:32;;;;;;;11.00;7.63;;;;;;;6.40;80.17;99467.25;2619047;54;20045;-70
2022/01/02 00:51:06;;;;;;;9.18;6.75;;;;;;;6.42;80.05;99460.06;2617715;54;20042;-69
2022/01/02 00:53:43;;;;;;;8.10;5.95;;;;;;;6.42;80.64;99464.47;2618021;39;20430;-70
2022/01/02 00:56:16;;;;;;;7.00;6.28;;;;;;;6.50;80.25;99458.47;2617735;47;20174;-72
2022/01/02 00:58:53;;;;;;;8.83;6.97;;;;;;;6.58;80.84;99456.75;2617275;47;20026;-69
2022/01/02 01:01:26;;;;;;;7.07;6.38;;;;;;;6.61;80.48;99452.97;2617022;54;20030;-69
2022/01/02 01:03:57;;;;;;;8.13;6.60;;;;;;;6.45;80.14;99451.06;2617495;47;20143;-69
2022/01/02 01:06:28;;;;;;;7.53;6.82;;;;;;;6.39;80.32;99462.16;2617691;39;20427;-69
2022/01/02 01:09:05;;;;;;;13.43;7.72;;;;;;;6.36;80.29;99460.63;2617500;47;20037;-69
2022/01/02 01:11:35;;;;;;;8.82;7.55;;;;;;;6.36;79.94;99450.13;2618945;54;20031;-69
2022/01/02 01:14:05;;;;;;;9.90;7.88;;;;;;;6.28;79.35;99439.53;2618159;47;20031;-69
2022/01/02 01:16:36;;;;;;;8.95;7.40;;;;;;;6.14;79.48;99437.44;2617780;54;20038;-69
2022/01/02 05:18:04;;;;;;;;;;;;;;;5.99;80.33;99213.22;110649;47;1587605650;31
2022/01/02 05:20:34;;;;;;;9.52;7.07;;;;;;;6.07;80.77;99218.53;2619728;54;20030;-65
2022/01/02 05:23:04;;;;;;;11.35;7.35;;;;;;;6.02;80.36;99219.00;2618394;47;20037;-64
2022/01/02 05:25:34;;;;;;;10.43;6.95;;;;;;;6.01;80.76;99224.41;2618406;54;20030;-64
2022/01/02 05:28:04;;;;;;;9.65;7.25;;;;;;;6.04;81.15;99227.56;2617687;54;20086;-65
2022/01/02 05:30:33;;;;;;;9.80;6.88;;;;;;;6.15;81.26;99236.97;2618237;54;20034;-64
2022/01/02 05:33:06;;;;;;;12.70;9.95;;;;;;;6.26;81.23;99234.09;2617687;47;20045;-66
2022/01/02 05:35:36;;;;;;;9.27;6.45;;;;;;;6.34;81.44;99235.94;2617909;54;20034;-66
2022/01/02 05:38:06;;;;;;;8.57;6.70;;;;;;;6.48;81.28;99242.41;2618123;54;20023;-64
2022/01/02 05:40:36;;;;;;;8.32;6.22;;;;;;;6.41;80.83;99234.34;2617996;51;20046;-64
2022/01/02 05:43:08;;;;;;;8.00;5.82;;;;;;;6.36;80.52;99236.59;2617627;54;20030;-64
2022/01/02 05:45:38;;;;;;;7.47;5.80;;;;;;;6.40;80.93;99235.31;2618838;54;20031;-64
2022/01/02 05:48:11;;;;;;;8.60;6.30;;;;;;;6.47;80.81;99240.78;2617591;54;20123;-64
2022/01/02 05:50:41;;;;;;;9.88;6.63;;;;;;;6.53;80.62;99229.63;2618020;54;20026;-65
2022/01/02 05:53:11;;;;;;;11.85;6.50;;;;;;;6.55;80.54;99225.06;2617678;47;20018;-65
2022/01/02 05:55:46;;;;;;;9.88;6.53;;;;;;;6.59;80.51;99215.88;2618150;54;20125;-65
2022/01/02 05:58:15;;;;;;;7.60;5.82;;;;;;;6.59;80.54;99218.53;2617761;47;20585;-64
2022/01/02 06:00:45;;;;;;;9.82;6.45;;;;;;;6.66;80.68;99220.38;2617596;54;20546;-67
2022/01/02 06:03:18;;;;;;;9.60;6.15;;;;;;;6.70;80.19;99219.06;2620389;54;20019;-64
2022/01/02 06:05:49;;;;;;;8.80;6.13;;;;;;;6.68;80.13;99214.94;2622048;47;20070;-65
2022/01/02 06:08:19;;;;;;;10.07;6.75;;;;;;;6.51;79.74;99207.97;2617898;54;20082;-65
2022/01/02 06:10:49;;;;;;;8.13;6.43;;;;;;;6.53;80.29;99224.38;2617815;47;20022;-64
2022/01/02 06:13:19;;;;;;;8.43;6.38;;;;;;;6.56;80.43;99218.81;2617871;47;20122;-65
2022/01/02 06:15:49;;;;;;;10.32;7.07;;;;;;;6.56;79.78;99203.88;2618927;39;20431;-65
2022/01/02 06:18:21;;;;;;;8.38;6.40;;;;;;;6.40;79.50;99203.81;2618344;54;20047;-65
2022/01/02 06:20:51;;;;;;;9.13;6.68;;;;;;;6.34;79.62;99192.13;2618877;54;20041;-65
2022/01/02 06:23:21;;;;;;;8.23;6.95;;;;;;;6.28;79.68;99190.09;2618759;54;20042;-66
2022/01/02 06:25:50;;;;;;;9.48;6.55;;;;;;;6.26;80.33;99194.72;2618165;54;20038;-66
2022/01/02 06:28:20;;;;;;;8.95;6.95;;;;;;;6.39;81.14;99196.91;2619266;54;20054;-65
2022/01/02 06:30:50;;;;;;;8.40;6.30;;;;;;;6.48;80.38;99203.03;2619176;54;20034;-65
2022/01/02 06:33:22;;;;;;;9.48;6.78;;;;;;;6.52;80.67;99204.34;2618682;47;20027;-66
2022/01/02 06:35:52;;;;;;;9.48;6.88;;;;;;;6.57;80.57;99208.19;2618302;54;20023;-66
2022/01/02 06:38:24;;;;;;;9.32;6.22;;;;;;;6.60;80.23;99204.41;2618846;47;20026;-65
2022/01/02 06:40:57;;;;;;;10.73;6.78;;;;;;;6.66;79.99;99206.41;2619628;39;20442;-64
2022/01/02 06:43:27;;;;;;;9.90;7.65;;;;;;;6.78;80.40;99210.41;2619803;54;20034;-64
2022/01/02 06:45:57;;;;;;;8.05;6.55;;;;;;;6.74;80.10;99213.50;2618937;54;20030;-65
2022/01/02 06:48:30;;;;;;;11.52;7.00;;;;;;;6.70;79.80;99211.19;2619061;54;20038;-65
2022/01/02 06:51:00;;;;;;;10.52;7.05;;;;;;;6.75;80.15;99213.34;2618866;54;20158;-64
2022/01/02 06:53:29;;;;;;;8.68;5.72;;;;;;;6.77;80.29;99216.63;2618596;54;20030;-65
2022/01/02 06:56:00;;;;;;;12.40;6.53;;;;;;;6.84;79.96;99211.56;2618355;47;20026;-65
2022/01/02 06:58:31;;;;;;;11.40;6.88;;;;;;;6.87;80.04;99200.75;2618493;47;20026;-64
2022/01/02 07:01:01;;;;;;;8.10;6.32;;;;;;;6.96;80.03;99202.41;2619855;47;20537;-66
2022/01/02 07:03:33;;;;;;;10.10;7.65;;;;;;;7.03;80.10;99203.41;2620025;46;20054;-66
2022/01/02 07:06:03;;;;;;;10.70;7.38;;;;;;;7.05;79.75;99211.13;2619802;54;20022;-66
2022/01/02 07:08:33;;;;;;;11.18;6.78;;;;;;;7.08;79.39;99197.69;2621619;31;20526;-66
2022/01/02 07:11:05;;;;;;;8.07;6.53;;;;;;;7.11;79.42;99197.38;2618943;54;20099;-66
2022/01/02 07:13:34;;;;;;;10.23;8.05;;;;;;;7.11;79.17;99184.22;2619586;39;20437;-66
2022/01/02 07:16:04;;;;;;;11.13;6.50;;;;;;;6.98;78.74;99186.47;2618775;54;20038;-65
2022/01/02 07:18:36;;;;;;;10.05;7.20;;;;;;;6.84;78.99;99180.03;2618339;47;20074;-66
2022/01/02 07:21:06;;;;;;;10.18;6.88;;;;;;;6.69;79.47;99169.28;2619037;54;20035;-66
2022/01/02 07:23:36;;;;;;;9.73;6.68;;;;;;;6.62;79.87;99173.56;2619030;54;20588;-66
2022/01/02 07:26:06;;;;;;;8.15;6.30;;;;;;;6.57;80.02;99183.69;2619039;54;20050;-66
2022/01/02 07:28:36;;;;;;;8.43;6.40;;;;;;;6.59;80.70;99181.75;2618917;54;20056;-66
2022/01/02 07:31:05;;;;;;;9.38;6.50;;;;;;;6.72;80.66;99174.25;2619046;54;20023;-66
2022/01/02 07:33:37;;;;;;;8.32;6.43;;;;;;;6.86;80.33;99167.56;2618947;54;20569;-65
2022/01/02 07:36:07;;;;;;;8.98;6.53;;;;;;;6.89;80.35;99170.66;2618288;54;20038;-65
2022/01/02 07:38:37;;;;;;;7.15;6.15;;;;;;;6.94;79.87;99160.53;2618535;54;20573;-65
2022/01/02 07:41:06;;;;;;;8.98;5.97;;;;;;;7.04;80.27;99149.03;2618676;54;20061;-66
2022/01/02 07:43:36;;;;;;;7.70;6.03;;;;;;;7.10;79.65;99145.75;2618643;54;20035;-63
2022/01/02 07:46:05;;;;;;;8.98;7.22;;;;;;;7.10;79.60;99137.84;2618414;54;20061;-66
2022/01/02 07:48:38;;;;;;;9.80;7.38;;;;;;;7.05;79.22;99113.88;2618940;39;20437;-65
2022/01/02 07:51:07;;;;;;;7.45;6.20;;;;;;;6.99;79.40;99135.56;2618753;54;20526;-65
2022/01/02 07:53:37;;;;;;;8.90;6.63;;;;;;;7.03;80.15;99145.59;2618639;54;20106;-65
2022/01/02 07:56:06;;;;;;;7.78;6.97;;;;;;;7.11;80.07;99144.78;2618532;54;20057;-66
2022/01/02 07:58:36;;;;;;;9.48;7.18;;;;;;;7.14;79.42;99136.56;2618521;54;20042;-65
2022/01/02 08:01:05;;;;;;;8.10;6.82;;;;;;;7.10;79.08;99148.38;2618553;54;20050;-66
2022/01/02 08:03:38;;;;;;;8.20;6.57;;;;;;;7.17;79.50;99141.50;2618595;54;20050;-66
2022/01/02 08:06:07;;;;;;;7.68;6.40;;;;;;;7.25;79.61;99141.50;2618407;54;20042;-67
2022/01/02 08:08:37;;;;;;;8.25;5.85;;;;;;;7.34;79.60;99134.44;2618631;54;20045;-65
2022/01/02 08:11:07;;;;;;;10.70;6.30;;;;;;;7.43;79.31;99126.41;2618746;54;20137;-65
2022/01/02 08:13:36;;;;;;;8.00;5.88;;;;;;;7.55;79.27;99123.41;2618715;54;20562;-65
2022/01/02 08:16:06;;;;;;;8.82;6.30;;;;;;;7.62;78.97;99132.31;2618511;39;20419;-67
2022/01/02 08:18:38;;;;;;;7.70;5.20;;;;;;;7.71;78.30;99131.31;2618023;54;20129;-66
2022/01/02 08:21:11;;;;;;;6.90;5.35;;;;;;;7.81;78.33;99129.34;2618660;54;20038;-68
2022/01/02 08:23:40;;;;;;;7.93;5.30;;;;;;;7.90;77.94;99122.25;2618650;54;20031;-66
2022/01/02 08:26:23;;;;;;;6.22;4.95;;;;;;;8.00;77.76;99127.31;2618496;54;20034;-65
2022/01/02 08:28:53;;;;;;;7.90;5.57;;;;;;;8.07;77.73;99137.00;2618351;54;20074;-66
2022/01/02 08:31:23;;;;;;;8.15;4.82;;;;;;;8.18;77.39;99143.75;2618106;47;20038;-66
2022/01/02 08:33:55;;;;;;;6.50;4.80;;;;;;;8.23;77.33;99145.88;2618023;47;20054;-66
2022/01/02 08:36:25;;;;;;;7.03;4.97;;;;;;;8.32;76.50;99152.75;2618687;54;20034;-67
2022/01/02 08:38:54;;;;;;;6.47;5.20;;;;;;;8.36;76.58;99157.50;2619978;31;20571;-66
2022/01/02 08:41:24;;;;;;;7.50;5.03;;;;;;;8.43;76.04;99155.06;2618679;54;20057;-66
2022/01/02 08:43:54;;;;;;;6.10;4.88;;;;;;;8.47;75.79;99156.34;2619041;54;20086;-64
2022/01/02 08:46:23;;;;;;;5.72;5.00;;;;;;;8.48;75.70;99155.34;2618753;54;20039;-67
2022/01/02 08:48:55;;;;;;;7.78;5.38;;;;;;;8.53;75.54;99142.50;2621220;39;20544;-67
2022/01/02 08:51:27;;;;;;;6.07;5.05;;;;;;;8.57;74.87;99150.88;2621885;54;20026;-65
2022/01/02 08:53:57;;;;;;;5.88;4.65;;;;;;;8.58;74.79;99147.25;2619125;54;20081;-66
2022/01/02 08:56:26;;;;;;;6.18;4.70;;;;;;;8.63;74.58;99139.66;2618230;47;20027;-65
2022/01/02 08:58:56;;;;;;;6.70;6.00;;;;;;;8.70;74.72;99140.63;2618563;54;20576;-65
2022/01/02 09:01:26;;;;;;;6.88;4.57;;;;;;;8.70;74.19;99143.25;2618617;54;20113;-65
2022/01/02 09:03:58;;;;;;;5.72;4.53;;;;;;;8.77;73.72;99138.09;2618214;54;20030;-66
2022/01/02 09:06:28;;;;;;;5.32;4.47;;;;;;;8.83;73.42;99142.69;2617830;54;20030;-66
2022/01/02 09:08:57;;;;;;;7.80;4.90;;;;;;;8.85;73.00;99132.78;2618087;47;20060;-67
2022/01/02 09:11:27;;;;;;;8.23;4.60;;;;;;;8.89;72.97;99124.34;2619914;54;20564;-66
2022/01/02 09:13:56;;;;;;;5.35;4.68;;;;;;;8.90;72.99;99112.00;2620111;54;20162;-66
2022/01/02 09:16:26;;;;;;;8.23;4.82;;;;;;;8.94;72.88;99102.75;2619308;54;20609;-67
2022/01/02 09:18:58;;;;;;;6.45;5.30;;;;;;;8.98;72.41;99100.56;2618544;54;20038;-67
2022/01/02 09:21:28;;;;;;;6.95;5.47;;;;;;;8.99;72.12;99110.16;2618980;54;20589;-66
2022/01/02 09:23:58;;;;;;;6.38;4.90;;;;;;;8.99;72.11;99150.50;2618928;54;20129;-66
2022/01/02 09:26:27;;;;;;;6.28;4.72;;;;;;;8.93;72.10;99159.09;2618878;54;20035;-67
2022/01/02 09:28:57;;;;;;;6.57;5.20;;;;;;;8.95;72.29;99146.59;2620079;47;20051;-66
2022/01/02 09:31:27;;;;;;;6.15;4.93;;;;;;;9.03;72.19;99159.72;2622201;54;20033;-66
2022/01/02 09:33:59;;;;;;;8.27;5.78;;;;;;;9.15;72.17;99144.31;2620598;54;20557;-66
2022/01/02 09:36:29;;;;;;;6.65;5.22;;;;;;;9.23;71.97;99164.56;2620250;54;20146;-66
2022/01/02 09:38:58;;;;;;;7.63;5.47;;;;;;;9.29;71.69;99161.19;2621996;54;20546;-67
2022/01/02 09:41:28;;;;;;;7.15;5.10;;;;;;;9.30;71.59;99163.66;2622012;54;20042;-66
2022/01/02 09:43:58;;;;;;;6.90;5.32;;;;;;;9.34;71.33;99156.22;2622519;54;20035;-66
2022/01/02 09:46:30;;;;;;;6.15;4.22;;;;;;;9.38;70.47;99149.59;2621091;54;20526;-65
2022/01/02 09:49:04;;;;;;;19.38;12.70;;;;;;;9.48;70.33;99139.63;2619285;47;20022;-65
2022/01/02 09:51:33;;;;;;;9.02;6.90;;;;;;;9.62;70.15;99132.75;2618740;39;20418;-65
2022/01/02 09:54:03;;;;;;;87.32;39.72;;;;;;;9.71;69.79;99133.47;2618217;47;20041;-65
2022/01/02 09:56:33;;;;;;;46.05;22.25;;;;;;;9.82;69.38;99107.47;2617953;54;20034;-66
2022/01/02 09:59:02;;;;;;;14.95;10.38;;;;;;;9.91;69.48;99108.19;2618246;54;20026;-66
2022/01/02 10:01:33;;;;;;;8.13;6.00;;;;;;;10.03;68.75;99103.31;2618430;54;20037;-65
2022/01/02 10:04:05;;;;;;;7.47;5.97;;;;;;;10.01;68.70;99097.41;2618520;54;20650;-66
2022/01/02 10:06:46;;;;;;;8.38;5.45;;;;;;;10.03;68.85;99090.91;2620026;39;20545;-65
2022/01/02 10:09:17;;;;;;;6.72;5.82;;;;;;;10.03;68.69;99087.44;2620167;54;20030;-67
2022/01/02 10:11:47;;;;;;;6.38;4.53;;;;;;;10.05;68.81;99083.63;2619961;54;20078;-65
2022/01/02 10:14:17;;;;;;;6.32;5.20;;;;;;;9.99;68.61;99068.50;2619639;54;20037;-66
2022/01/02 10:16:46;;;;;;;10.88;6.80;;;;;;;10.00;68.30;99072.81;2618298;54;20151;-66
2022/01/02 10:19:26;;;;;;;7.13;5.20;;;;;;;10.03;68.60;99053.94;2618492;54;20038;-66
2022/01/02 10:21:59;;;;;;;9.02;6.22;;;;;;;10.12;68.90;99037.00;2618274;54;20118;-66
2022/01/02 10:24:31;;;;;;;9.35;7.80;;;;;;;10.20;68.74;99027.31;2618592;54;20030;-66
2022/01/02 10:27:14;;;;;;;7.72;5.00;;;;;;;10.17;68.35;99020.59;2618168;54;20041;-66
2022/01/02 10:29:47;;;;;;;15.25;9.93;;;;;;;10.16;68.02;99013.66;2617969;54;20030;-66
2022/01/02 10:32:34;;;;;;;9.00;4.82;;;;;;;10.16;68.04;99000.44;2618429;54;20053;-66
2022/01/02 10:35:18;;;;;;;8.88;5.55;;;;;;;10.11;68.12;99001.00;2617858;47;20041;-66
2022/01/02 10:37:51;;;;;;;16.60;10.43;;;;;;;10.05;67.65;99019.44;2618069;54;20554;-65
2022/01/02 10:40:30;;;;;;;7.30;5.38;;;;;;;10.02;67.79;99017.97;2617693;54;20522;-64
2022/01/02 10:43:01;;;;;;;7.22;5.47;;;;;;;9.99;67.88;99002.47;2618109;54;20061;-65
2022/01/02 10:45:40;;;;;;;6.55;5.32;;;;;;;10.00;67.60;99019.13;2618372;54;20041;-66
2022/01/02 10:48:12;;;;;;;6.63;5.10;;;;;;;9.99;67.57;99030.72;2617644;54;20034;-66
2022/01/02 10:51:24;;;;;;;8.52;4.72;;;;;;;10.02;67.65;99046.19;2618539;39;20427;-67
2022/01/02 10:53:55;;;;;;;7.28;5.25;;;;;;;10.02;67.48;99088.47;2618307;54;20030;-65
2022/01/02 10:56:30;;;;;;;10.02;6.00;;;;;;;10.08;67.32;99082.44;2617265;47;20026;-66
2022/01/02 10:59:01;;;;;;;8.55;5.20;;;;;;;10.20;66.81;99096.00;2618074;54;20026;-65
2022/01/02 11:01:31;;;;;;;6.72;4.80;;;;;;;10.30;66.60;99086.03;2617864;54;20106;-66
2022/01/02 11:04:02;;;;;;;11.32;6.45;;;;;;;10.38;66.00;99073.53;2618986;54;20061;-66
2022/01/02 11:06:37;;;;;;;9.00;5.70;;;;;;;10.43;65.49;99061.59;2619194;54;20049;-67
2022/01/02 11:09:07;;;;;;;7.75;4.82;;;;;;;10.47;65.07;99034.59;2619619;39;20473;-66
2022/01/02 11:11:37;;;;;;;11.38;6.80;;;;;;;10.52;65.00;99008.41;2622457;54;20034;-67
2022/01/02 11:14:07;;;;;;;6.97;5.63;;;;;;;10.54;65.20;99011.72;2625007;54;20062;-66
2022/01/02 11:16:38;;;;;;;6.97;5.30;;;;;;;10.57;64.56;98998.13;2625888;39;20416;-66
2022/01/02 11:19:11;;;;;;;7.13;4.72;;;;;;;10.66;64.33;98993.53;2623816;47;20047;-67
2022/01/02 11:21:47;;;;;;;5.35;3.90;;;;;;;10.69;64.18;98969.34;2621383;47;20101;-71
2022/01/02 11:24:23;;;;;;;5.82;4.00;;;;;;;10.71;63.70;98977.09;2623429;47;20077;-70
2022/01/02 11:26:58;;;;;;;7.45;4.80;;;;;;;10.76;63.76;98983.44;2622625;51;20026;-71
2022/01/02 11:29:28;;;;;;;5.93;4.10;;;;;;;10.73;63.23;98991.75;2623173;54;20082;-72
2022/01/02 11:31:58;;;;;;;6.40;4.85;;;;;;;10.74;63.36;98997.88;2623233;54;20038;-69
2022/01/02 11:34:30;;;;;;;5.05;3.92;;;;;;;10.77;63.46;99002.75;2622917;54;20030;-69
2022/01/02 11:37:27;;;;;;;8.20;4.45;;;;;;;10.81;63.65;99010.13;2623176;47;20034;-71
2022/01/02 11:39:59;;;;;;;6.63;4.88;;;;;;;10.86;63.11;99017.53;2623178;54;20042;-71
2022/01/02 11:42:46;;;;;;;6.60;4.20;;;;;;;10.94;62.88;99014.75;2624097;54;20037;-70
2022/01/02 11:45:41;;;;;;;6.97;4.72;;;;;;;11.03;62.36;98988.97;2623893;54;20039;-70
2022/01/02 11:48:27;;;;;;;5.10;3.75;;;;;;;10.98;62.53;98989.56;2623438;54;20039;-71
2022/01/02 11:50:57;;;;;;;4.60;4.00;;;;;;;11.00;62.52;98992.81;2624284;39;20434;-70
2022/01/02 11:53:35;;;;;;;4.85;4.28;;;;;;;11.07;62.18;98985.75;2624193;54;20549;-70
2022/01/02 11:56:06;;;;;;;6.18;4.55;;;;;;;11.04;61.81;98974.75;2623506;54;20044;-70
2022/01/02 11:58:55;;;;;;;5.55;4.50;;;;;;;11.03;62.18;98973.94;2623886;54;20031;-71
2022/01/02 12:01:49;;;;;;;6.38;5.03;;;;;;;11.06;62.31;98976.19;2624249;46;20026;-68
2022/01/02 12:04:19;;;;;;;;;;;;;;;11.08;61.81;98966.22;2622988;54;20031;-71
2022/01/02 12:06:52;;;;;;;4.43;3.72;;;;;;;11.08;61.72;98955.66;2622042;47;19954;-71
2022/01/02 12:09:39;;;;;;;7.65;4.78;;;;;;;11.16;61.51;98963.44;2623146;54;20026;-69
2022/01/02 12:12:10;;;;;;;4.18;3.40;;;;;;;11.09;61.40;98951.97;2622433;54;20081;-70
2022/01/02 12:14:55;;;;;;;7.25;4.38;;;;;;;11.13;61.56;98957.72;2622844;54;20081;-70
2022/01/02 12:17:25;;;;;;;6.15;4.47;;;;;;;11.14;60.93;98951.41;2623613;54;20573;-69
2022/01/02 12:20:07;;;;;;;8.80;4.38;;;;;;;11.14;60.99;98948.75;2623523;54;20045;-70
2022/01/02 12:22:47;;;;;;;5.80;4.05;;;;;;;11.14;60.83;98960.19;2623377;54;20876;-70
2022/01/02 12:25:23;;;;;;;5.60;4.70;;;;;;;11.13;61.49;98949.78;2623247;54;20030;-70
2022/01/02 12:27:56;;;;;;;6.00;4.93;;;;;;;11.16;61.58;98947.56;2622235;51;20570;-69
2022/01/02 12:30:26;;;;;;;5.50;4.38;;;;;;;11.16;61.58;98947.56;2623266;54;20030;-70
2022/01/02 12:32:56;;;;;;;6.32;4.05;;;;;;;11.20;61.66;98949.84;2623263;54;20034;-70
2022/01/02 12:35:26;;;;;;;6.30;4.63;;;;;;;11.22;61.21;98939.84;2622737;54;20050;-70
2022/01/02 12:38:06;;;;;;;8.57;5.57;;;;;;;11.28;60.91;98939.09;2622930;54;20573;-70
2022/01/02 12:40:42;;;;;;;6.50;4.10;;;;;;;11.33;61.18;98929.56;2623083;54;20031;-69
2022/01/02 12:43:12;;;;;;;7.05;4.30;;;;;;;11.37;61.15;98932.63;2622617;54;20455;-69
2022/01/02 12:45:42;;;;;;;9.00;4.95;;;;;;;11.40;60.67;98926.97;2623324;54;20038;-70
2022/01/02 12:48:13;;;;;;;9.13;4.43;;;;;;;11.44;60.64;98930.84;2622550;54;20589;-70
2022/01/02 12:50:44;;;;;;;5.68;4.47;;;;;;;11.53;60.82;98940.25;2622813;54;20039;-71
2022/01/02 12:53:13;;;;;;;5.97;4.50;;;;;;;11.52;60.75;98932.53;2623351;54;20023;-68
2022/01/02 12:55:45;;;;;;;7.57;4.13;;;;;;;11.54;60.45;98938.44;2623789;39;20449;-68
2022/01/02 12:58:15;;;;;;;10.48;4.10;;;;;;;11.50;59.71;98937.19;2623425;54;20031;-69
2022/01/02 13:00:45;;;;;;;5.97;4.40;;;;;;;11.51;60.31;98931.72;2622904;47;20038;-69
2022/01/02 13:03:18;;;;;;;6.85;3.85;;;;;;;11.51;60.10;98931.72;2623176;54;20569;-69
2022/01/02 13:05:52;;;;;;;6.72;5.20;;;;;;;11.63;60.60;98930.16;2622102;54;20038;-69
2022/01/02 13:08:26;;;;;;;5.40;4.00;;;;;;;11.76;59.77;98942.63;2622378;54;20743;-70
2022/01/02 13:11:10;;;;;;;;;;;;;;;11.66;59.99;98932.38;2622891;54;20056;-70
2022/01/02 13:13:39;;;;;;;6.50;5.15;;;;;;;11.57;60.26;98928.28;2622686;54;19939;-70
2022/01/02 13:16:10;;;;;;;5.75;4.15;;;;;;;11.57;60.37;98938.03;2622563;54;20034;-70
2022/01/02 13:18:41;;;;;;;6.13;4.50;;;;;;;11.57;60.41;98920.31;2622837;54;20030;-70
2022/01/02 13:21:16;;;;;;;5.70;4.55;;;;;;;11.61;60.70;98934.00;2622143;54;20037;-70
2022/01/02 13:23:45;;;;;;;7.95;4.65;;;;;;;11.57;61.28;98936.22;2622348;54;20037;-70
2022/01/02 13:26:22;;;;;;;6.32;4.53;;;;;;;11.58;61.20;98939.69;2621683;54;20042;-70
2022/01/02 13:29:00;;;;;;;5.20;3.90;;;;;;;11.55;61.09;98940.91;2622162;54;20529;-70
2022/01/02 13:31:30;;;;;;;15.10;8.23;;;;;;;11.44;61.35;98938.78;2622688;54;20033;-68
2022/01/02 13:33:59;;;;;;;16.95;9.93;;;;;;;11.44;61.30;98956.50;2622869;54;20039;-69
2022/01/02 13:36:29;;;;;;;11.05;6.20;;;;;;;11.40;61.24;98959.53;2623342;54;20039;-68
2022/01/02 13:39:01;;;;;;;9.55;6.18;;;;;;;11.37;61.47;98954.63;2622585;54;20033;-70
2022/01/02 13:41:36;;;;;;;12.05;7.20;;;;;;;11.34;61.60;98957.66;2623329;54;20030;-70
2022/01/02 13:44:17;;;;;;;7.38;5.22;;;;;;;11.34;61.73;98965.59;2623155;54;20035;-70
2022/01/02 13:46:53;;;;;;;7.70;4.45;;;;;;;11.35;61.73;98964.59;2622689;54;20066;-70
2022/01/02 13:49:42;;;;;;;7.93;4.15;;;;;;;11.32;62.09;98957.03;2622561;54;20030;-70
2022/01/02 13:52:12;;;;;;;10.18;5.32;;;;;;;11.37;62.08;98954.63;2622891;54;20035;-69
2022/01/02 13:54:45;;;;;;;6.43;4.70;;;;;;;11.36;62.49;98949.53;2623131;54;20026;-70
2022/01/02 13:57:18;;;;;;;7.20;4.57;;;;;;;11.39;62.47;98946.50;2622569;54;20022;-70
2022/01/02 13:59:48;;;;;;;6.07;4.17;;;;;;;11.32;62.66;98945.63;2622681;51;20034;-69
2022/01/02 14:02:18;;;;;;;6.88;4.75;;;;;;;11.32;62.86;98946.44;2623137;54;20038;-69
2022/01/02 14:04:58;;;;;;;9.20;5.47;;;;;;;11.37;62.74;98944.03;2623080;54;20061;-69
2022/01/02 14:07:34;;;;;;;5.78;4.15;;;;;;;11.36;63.28;98965.41;2622778;54;20042;-69
2022/01/02 14:10:06;;;;;;;5.30;4.30;;;;;;;11.36;63.25;98976.00;2623319;54;20038;-69
2022/01/02 14:12:38;;;;;;;7.03;4.07;;;;;;;11.37;63.19;98969.69;2622957;39;20450;-69
2022/01/02 14:15:30;;;;;;;6.82;4.32;;;;;;;11.36;63.54;98970.72;2623131;54;20039;-70
2022/01/02 14:18:00;;;;;;;7.72;4.53;;;;;;;11.34;63.72;98981.47;2622083;54;20043;-69
2022/01/02 14:20:35;;;;;;;9.20;5.78;;;;;;;11.30;64.05;98979.41;2622681;54;20106;-69
2022/01/02 14:23:06;;;;;;;10.93;6.05;;;;;;;11.30;64.28;98980.22;2623135;54;20026;-69
2022/01/02 14:25:36;;;;;;;6.15;4.35;;;;;;;11.33;63.97;98984.31;2622236;54;20416;-69
2022/01/02 14:28:08;;;;;;;11.43;7.47;;;;;;;11.39;64.17;98980.91;2621470;54;20026;-69
2022/01/02 14:30:38;;;;;;;4.68;4.20;;;;;;;11.34;63.38;98983.31;2622832;54;20034;-69
2022/01/02 14:33:08;;;;;;;6.55;4.05;;;;;;;11.32;63.77;98974.75;2623679;39;20442;-68
2022/01/02 14:35:37;;;;;;;7.55;4.30;;;;;;;11.34;63.39;98973.53;2623027;54;20022;-68
2022/01/02 14:38:07;;;;;;;9.27;4.47;;;;;;;11.31;63.77;98986.34;2623614;46;20061;-68
2022/01/02 14:40:37;;;;;;;8.18;4.50;;;;;;;11.31;63.62;98981.88;2624214;39;20484;-68
2022/01/02 14:43:09;;;;;;;6.57;3.70;;;;;;;11.30;64.00;98977.56;2624158;54;20030;-68
2022/01/02 14:45:39;;;;;;;8.65;4.47;;;;;;;11.30;63.97;98990.81;2624364;54;20049;-68
2022/01/02 14:48:08;;;;;;;4.93;4.38;;;;;;;11.23;63.59;98974.09;2623902;54;20077;-68
2022/01/02 14:50:38;;;;;;;7.15;4.70;;;;;;;11.21;64.08;98991.16;2624231;54;20018;-69
2022/01/02 14:53:08;;;;;;;6.65;4.03;;;;;;;11.21;64.15;98999.91;2624292;54;20115;-68
2022/01/02 14:55:41;;;;;;;6.47;3.83;;;;;;;11.19;63.98;98995.84;2623118;54;20170;-69
2022/01/02 14:58:13;;;;;;;6.75;4.47;;;;;;;11.17;64.20;99001.28;2622617;47;20023;-68
2022/01/02 15:00:43;;;;;;;7.55;4.80;;;;;;;11.16;64.41;99010.25;2622784;54;20038;-68
2022/01/02 15:03:13;;;;;;;7.70;5.05;;;;;;;11.15;64.37;99016.56;2622651;46;20042;-68
2022/01/02 15:05:42;;;;;;;6.25;4.38;;;;;;;11.07;64.75;99001.63;2622593;54;20029;-68
2022/01/02 15:08:13;;;;;;;7.72;4.50;;;;;;;11.06;64.78;99007.09;2622738;54;20038;-68
2022/01/02 15:10:42;;;;;;;8.48;4.93;;;;;;;11.02;65.07;98998.75;2623083;54;20053;-70
2022/01/02 15:13:15;;;;;;;8.60;5.07;;;;;;;11.05;65.04;98976.38;2622655;54;20046;-70
2022/01/02 15:15:45;;;;;;;9.13;5.22;;;;;;;11.01;64.92;98975.13;2622122;47;20038;-69
2022/01/02 15:18:14;;;;;;;6.40;4.35;;;;;;;10.98;65.38;98981.63;2622616;54;20061;-68
2022/01/02 15:20:44;;;;;;;6.97;3.85;;;;;;;10.90;65.48;98982.56;2622612;54;20031;-69
2022/01/02 15:23:14;;;;;;;9.05;4.95;;;;;;;10.88;65.45;98989.88;2622667;54;20049;-68
2022/01/02 15:25:43;;;;;;;8.65;7.07;;;;;;;10.87;65.58;98985.59;2622310;54;20033;-69
2022/01/02 15:28:37;;;;;;;11.65;7.03;;;;;;;10.84;65.94;98982.50;2622870;54;20031;-69
2022/01/02 15:31:07;;;;;;;6.80;4.80;;;;;;;10.76;66.43;98987.91;2623137;54;20043;-69
2022/01/02 15:33:37;;;;;;;8.98;5.30;;;;;;;10.74;66.98;98993.41;2622885;54;20039;-68
2022/01/02 15:36:07;;;;;;;9.65;5.30;;;;;;;10.75;67.12;98989.75;2622731;54;20043;-69
2022/01/02 15:38:37;;;;;;;8.73;5.35;;;;;;;10.72;67.29;98991.94;2621977;54;20073;-68
2022/01/02 15:41:06;;;;;;;7.57;5.20;;;;;;;10.78;67.14;98988.56;2621096;47;20065;-67
2022/01/02 15:43:39;;;;;;;6.28;4.68;;;;;;;10.77;67.79;98985.06;2622039;54;20022;-67
2022/01/02 15:46:08;;;;;;;9.02;5.38;;;;;;;10.77;67.54;98995.66;2621367;54;20035;-68
2022/01/02 15:48:38;;;;;;;9.85;6.22;;;;;;;10.76;68.16;98990.56;2621506;54;20027;-68
2022/01/02 15:51:07;;;;;;;9.85;5.93;;;;;;;10.80;68.22;98981.25;2621727;54;20045;-68
2022/01/02 15:53:37;;;;;;;8.18;5.63;;;;;;;10.76;68.39;98982.63;2622093;54;20030;-68
2022/01/02 15:56:07;;;;;;;9.38;5.53;;;;;;;10.73;68.45;98978.53;2623095;46;20058;-68
2022/01/02 15:58:40;;;;;;;13.07;5.35;;;;;;;10.73;68.93;98986.47;2622210;54;20030;-68